sensor_id;sensor_type;location;lat;lon;timestamp;P1;durP1;ratioP1;P2;durP2;ratioP2
12493;SDS011;8260;51.422;6.786;2022-12-10T00:01:06;51.60;;;27.37;;
12493;SDS011;8260;51.422;6.786;2022-12-10T00:03:35;57.60;;;28.40;;
12493;SDS011;8260;51.422;6.786;2022-12-10T00:06:05;48.37;;;26.17;;
12493;SDS011;8260;51.422;6.786;2022-12-10T00:08:35;45.90;;;25.80;;
12493;SDS011;8260;51.422;6.786;2022-12-10T00:11:04;51.60;;;26.70;;
12493;SDS011;8260;51.422;6.786;2022-12-10T00:13:32;45.13;;;25.87;;
12493;SDS011;8260;51.422;6.786;2022-12-10T00:16:01;52.70;;;26.87;;
12493;SDS011;8260;51.422;6.786;2022-12-10T00:18:30;52.40;;;27.57;;
12493;SDS011;8260;51.422;6.786;2022-12-10T00:21:01;52.50;;;26.37;;
12493;SDS011;8260;51.422;6.786;2022-12-10T00:23:30;49.10;;;25.70;;
12493;SDS011;8260;51.422;6.786;2022-12-10T00:26:02;51.23;;;25.90;;
12493;SDS011;8260;51.422;6.786;2022-12-10T00:28:31;49.73;;;26.83;;
12493;SDS011;8260;51.422;6.786;2022-12-10T00:31:03;46.47;;;25.53;;
12493;SDS011;8260;51.422;6.786;2022-12-10T00:33:32;47.90;;;26.00;;
12493;SDS011;8260;51.422;6.786;2022-12-10T00:36:01;49.17;;;26.93;;
12493;SDS011;8260;51.422;6.786;2022-12-10T00:38:29;51.40;;;27.93;;
12493;SDS011;8260;51.422;6.786;2022-12-10T00:40:57;50.17;;;27.80;;
12493;SDS011;8260;51.422;6.786;2022-12-10T00:43:27;53.63;;;28.17;;
12493;SDS011;8260;51.422;6.786;2022-12-10T00:45:56;52.93;;;27.70;;
12493;SDS011;8260;51.422;6.786;2022-12-10T00:48:24;48.53;;;27.20;;
12493;SDS011;8260;51.422;6.786;2022-12-10T00:50:56;54.40;;;28.57;;
12493;SDS011;8260;51.422;6.786;2022-12-10T00:53:25;54.37;;;28.40;;
12493;SDS011;8260;51.422;6.786;2022-12-10T00:55:54;53.93;;;26.90;;
12493;SDS011;8260;51.422;6.786;2022-12-10T00:58:23;51.83;;;27.97;;
12493;SDS011;8260;51.422;6.786;2022-12-10T01:00:52;51.47;;;27.63;;
12493;SDS011;8260;51.422;6.786;2022-12-10T01:03:21;52.90;;;27.00;;
12493;SDS011;8260;51.422;6.786;2022-12-10T01:05:49;52.50;;;27.50;;
12493;SDS011;8260;51.422;6.786;2022-12-10T01:08:18;51.13;;;27.07;;
12493;SDS011;8260;51.422;6.786;2022-12-10T01:10:52;52.13;;;28.00;;
12493;SDS011;8260;51.422;6.786;2022-12-10T01:13:20;50.60;;;27.13;;
12493;SDS011;8260;51.422;6.786;2022-12-10T01:15:48;52.63;;;27.43;;
12493;SDS011;8260;51.422;6.786;2022-12-10T01:18:18;54.70;;;27.33;;
12493;SDS011;8260;51.422;6.786;2022-12-10T01:20:47;50.73;;;26.13;;
12493;SDS011;8260;51.422;6.786;2022-12-10T01:23:15;52.93;;;26.57;;
12493;SDS011;8260;51.422;6.786;2022-12-10T01:25:43;49.47;;;27.77;;
12493;SDS011;8260;51.422;6.786;2022-12-10T01:28:12;51.73;;;25.87;;
12493;SDS011;8260;51.422;6.786;2022-12-10T01:30:40;48.17;;;26.60;;
12493;SDS011;8260;51.422;6.786;2022-12-10T01:33:09;52.37;;;27.03;;
12493;SDS011;8260;51.422;6.786;2022-12-10T01:35:38;55.93;;;28.43;;
12493;SDS011;8260;51.422;6.786;2022-12-10T01:38:07;50.63;;;26.67;;
12493;SDS011;8260;51.422;6.786;2022-12-10T01:40:36;51.47;;;27.53;;
12493;SDS011;8260;51.422;6.786;2022-12-10T01:43:05;49.37;;;26.13;;
12493;SDS011;8260;51.422;6.786;2022-12-10T01:45:33;59.17;;;28.97;;
12493;SDS011;8260;51.422;6.786;2022-12-10T01:48:02;55.43;;;28.37;;
12493;SDS011;8260;51.422;6.786;2022-12-10T01:50:33;54.10;;;26.53;;
12493;SDS011;8260;51.422;6.786;2022-12-10T01:53:03;52.13;;;28.40;;
12493;SDS011;8260;51.422;6.786;2022-12-10T01:58:18;55.00;;;26.97;;
12493;SDS011;8260;51.422;6.786;2022-12-10T02:00:51;46.93;;;25.50;;
12493;SDS011;8260;51.422;6.786;2022-12-10T02:03:24;46.33;;;25.30;;
12493;SDS011;8260;51.422;6.786;2022-12-10T02:05:56;50.00;;;25.83;;
12493;SDS011;8260;51.422;6.786;2022-12-10T02:08:28;53.20;;;27.40;;
12493;SDS011;8260;51.422;6.786;2022-12-10T02:11:03;46.90;;;24.57;;
12493;SDS011;8260;51.422;6.786;2022-12-10T02:13:34;52.77;;;25.73;;
12493;SDS011;8260;51.422;6.786;2022-12-10T02:16:06;45.57;;;25.00;;
12493;SDS011;8260;51.422;6.786;2022-12-10T02:18:37;51.33;;;25.53;;
12493;SDS011;8260;51.422;6.786;2022-12-10T02:21:07;50.43;;;26.13;;
12493;SDS011;8260;51.422;6.786;2022-12-10T02:23:38;55.50;;;27.90;;
12493;SDS011;8260;51.422;6.786;2022-12-10T02:26:10;50.57;;;25.80;;
12493;SDS011;8260;51.422;6.786;2022-12-10T02:28:39;52.57;;;26.27;;
12493;SDS011;8260;51.422;6.786;2022-12-10T02:31:11;48.50;;;26.83;;
12493;SDS011;8260;51.422;6.786;2022-12-10T02:33:43;46.77;;;24.63;;
12493;SDS011;8260;51.422;6.786;2022-12-10T02:36:13;53.23;;;27.00;;
12493;SDS011;8260;51.422;6.786;2022-12-10T02:38:42;54.20;;;25.07;;
12493;SDS011;8260;51.422;6.786;2022-12-10T02:41:13;49.97;;;26.20;;
12493;SDS011;8260;51.422;6.786;2022-12-10T02:43:43;54.20;;;27.20;;
12493;SDS011;8260;51.422;6.786;2022-12-10T02:46:14;54.17;;;27.37;;
12493;SDS011;8260;51.422;6.786;2022-12-10T02:48:43;55.17;;;27.77;;
12493;SDS011;8260;51.422;6.786;2022-12-10T02:51:13;58.77;;;29.07;;
12493;SDS011;8260;51.422;6.786;2022-12-10T02:53:42;60.87;;;30.10;;
12493;SDS011;8260;51.422;6.786;2022-12-10T02:56:13;68.70;;;30.80;;
12493;SDS011;8260;51.422;6.786;2022-12-10T02:58:43;61.83;;;30.53;;
12493;SDS011;8260;51.422;6.786;2022-12-10T03:01:18;59.23;;;30.17;;
12493;SDS011;8260;51.422;6.786;2022-12-10T03:03:49;64.80;;;32.00;;
12493;SDS011;8260;51.422;6.786;2022-12-10T03:06:22;98.10;;;32.30;;
12493;SDS011;8260;51.422;6.786;2022-12-10T03:08:54;84.97;;;32.87;;
12493;SDS011;8260;51.422;6.786;2022-12-10T03:11:26;66.93;;;31.13;;
12493;SDS011;8260;51.422;6.786;2022-12-10T03:13:57;63.83;;;32.40;;
12493;SDS011;8260;51.422;6.786;2022-12-10T03:16:30;123.77;;;37.00;;
12493;SDS011;8260;51.422;6.786;2022-12-10T03:19:02;100.43;;;35.23;;
12493;SDS011;8260;51.422;6.786;2022-12-10T03:21:31;79.60;;;35.27;;
12493;SDS011;8260;51.422;6.786;2022-12-10T03:24:01;84.83;;;33.83;;
12493;SDS011;8260;51.422;6.786;2022-12-10T03:26:30;71.50;;;32.13;;
12493;SDS011;8260;51.422;6.786;2022-12-10T03:29:00;79.60;;;33.07;;
12493;SDS011;8260;51.422;6.786;2022-12-10T03:31:31;77.60;;;32.50;;
12493;SDS011;8260;51.422;6.786;2022-12-10T03:34:00;71.03;;;33.60;;
12493;SDS011;8260;51.422;6.786;2022-12-10T03:36:29;72.73;;;33.03;;
12493;SDS011;8260;51.422;6.786;2022-12-10T03:38:58;81.07;;;35.87;;
12493;SDS011;8260;51.422;6.786;2022-12-10T03:41:27;70.40;;;34.07;;
12493;SDS011;8260;51.422;6.786;2022-12-10T03:43:56;66.00;;;31.87;;
12493;SDS011;8260;51.422;6.786;2022-12-10T03:46:25;70.73;;;33.23;;
12493;SDS011;8260;51.422;6.786;2022-12-10T03:48:56;72.53;;;33.77;;
12493;SDS011;8260;51.422;6.786;2022-12-10T03:51:24;74.07;;;33.67;;
12493;SDS011;8260;51.422;6.786;2022-12-10T03:53:53;67.93;;;32.87;;
12493;SDS011;8260;51.422;6.786;2022-12-10T03:56:21;66.10;;;32.30;;
12493;SDS011;8260;51.422;6.786;2022-12-10T03:58:50;70.57;;;32.57;;
12493;SDS011;8260;51.422;6.786;2022-12-10T04:01:18;69.80;;;34.07;;
12493;SDS011;8260;51.422;6.786;2022-12-10T04:03:46;70.30;;;32.50;;
12493;SDS011;8260;51.422;6.786;2022-12-10T04:06:17;72.43;;;32.70;;
12493;SDS011;8260;51.422;6.786;2022-12-10T04:08:46;71.03;;;33.70;;
12493;SDS011;8260;51.422;6.786;2022-12-10T04:11:23;65.80;;;31.00;;
12493;SDS011;8260;51.422;6.786;2022-12-10T04:13:52;63.73;;;33.23;;
12493;SDS011;8260;51.422;6.786;2022-12-10T04:16:38;60.13;;;31.47;;
12493;SDS011;8260;51.422;6.786;2022-12-10T04:19:08;58.43;;;30.00;;
12493;SDS011;8260;51.422;6.786;2022-12-10T04:21:38;59.10;;;31.23;;
12493;SDS011;8260;51.422;6.786;2022-12-10T04:24:24;65.60;;;32.87;;
12493;SDS011;8260;51.422;6.786;2022-12-10T04:27:12;56.03;;;30.10;;
12493;SDS011;8260;51.422;6.786;2022-12-10T04:29:40;56.10;;;29.33;;
12493;SDS011;8260;51.422;6.786;2022-12-10T04:32:09;56.27;;;30.50;;
12493;SDS011;8260;51.422;6.786;2022-12-10T04:34:38;60.20;;;29.77;;
12493;SDS011;8260;51.422;6.786;2022-12-10T04:37:07;61.43;;;31.80;;
12493;SDS011;8260;51.422;6.786;2022-12-10T04:39:37;67.03;;;31.93;;
12493;SDS011;8260;51.422;6.786;2022-12-10T04:42:05;69.77;;;34.20;;
12493;SDS011;8260;51.422;6.786;2022-12-10T04:44:34;65.40;;;32.00;;
12493;SDS011;8260;51.422;6.786;2022-12-10T04:47:02;68.03;;;32.07;;
12493;SDS011;8260;51.422;6.786;2022-12-10T04:49:31;63.37;;;31.87;;
12493;SDS011;8260;51.422;6.786;2022-12-10T04:52:00;74.87;;;33.93;;
12493;SDS011;8260;51.422;6.786;2022-12-10T04:54:29;68.33;;;33.57;;
12493;SDS011;8260;51.422;6.786;2022-12-10T04:57:04;77.47;;;33.37;;
12493;SDS011;8260;51.422;6.786;2022-12-10T04:59:32;65.10;;;32.03;;
12493;SDS011;8260;51.422;6.786;2022-12-10T05:02:01;63.10;;;32.13;;
12493;SDS011;8260;51.422;6.786;2022-12-10T05:04:29;73.60;;;34.23;;
12493;SDS011;8260;51.422;6.786;2022-12-10T05:06:58;60.77;;;30.93;;
12493;SDS011;8260;51.422;6.786;2022-12-10T05:09:26;63.60;;;31.90;;
12493;SDS011;8260;51.422;6.786;2022-12-10T05:11:56;64.70;;;30.60;;
12493;SDS011;8260;51.422;6.786;2022-12-10T05:14:24;64.37;;;29.90;;
12493;SDS011;8260;51.422;6.786;2022-12-10T05:16:53;65.83;;;30.87;;
12493;SDS011;8260;51.422;6.786;2022-12-10T05:19:21;64.33;;;30.70;;
12493;SDS011;8260;51.422;6.786;2022-12-10T05:21:50;58.87;;;28.07;;
12493;SDS011;8260;51.422;6.786;2022-12-10T05:24:36;57.00;;;26.67;;
12493;SDS011;8260;51.422;6.786;2022-12-10T05:27:06;78.93;;;30.70;;
12493;SDS011;8260;51.422;6.786;2022-12-10T05:29:34;56.73;;;29.37;;
12493;SDS011;8260;51.422;6.786;2022-12-10T05:32:03;62.20;;;29.13;;
12493;SDS011;8260;51.422;6.786;2022-12-10T05:34:31;56.53;;;29.63;;
12493;SDS011;8260;51.422;6.786;2022-12-10T05:37:00;81.33;;;29.60;;
12493;SDS011;8260;51.422;6.786;2022-12-10T05:39:28;65.10;;;29.53;;
12493;SDS011;8260;51.422;6.786;2022-12-10T05:41:56;63.97;;;28.80;;
12493;SDS011;8260;51.422;6.786;2022-12-10T05:44:26;68.67;;;31.40;;
12493;SDS011;8260;51.422;6.786;2022-12-10T05:46:55;70.00;;;31.13;;
12493;SDS011;8260;51.422;6.786;2022-12-10T05:49:24;79.87;;;30.33;;
12493;SDS011;8260;51.422;6.786;2022-12-10T05:51:53;69.47;;;31.13;;
12493;SDS011;8260;51.422;6.786;2022-12-10T05:54:22;70.30;;;31.40;;
12493;SDS011;8260;51.422;6.786;2022-12-10T05:56:50;63.53;;;29.37;;
12493;SDS011;8260;51.422;6.786;2022-12-10T05:59:19;61.70;;;29.87;;
12493;SDS011;8260;51.422;6.786;2022-12-10T06:01:49;61.83;;;30.10;;
12493;SDS011;8260;51.422;6.786;2022-12-10T06:04:17;57.90;;;29.37;;
12493;SDS011;8260;51.422;6.786;2022-12-10T06:06:46;60.47;;;29.73;;
12493;SDS011;8260;51.422;6.786;2022-12-10T06:09:19;54.90;;;28.37;;
12493;SDS011;8260;51.422;6.786;2022-12-10T06:11:47;56.33;;;29.20;;
12493;SDS011;8260;51.422;6.786;2022-12-10T06:14:15;53.47;;;27.43;;
12493;SDS011;8260;51.422;6.786;2022-12-10T06:16:44;59.33;;;28.97;;
12493;SDS011;8260;51.422;6.786;2022-12-10T06:19:14;58.00;;;28.53;;
12493;SDS011;8260;51.422;6.786;2022-12-10T06:21:42;54.13;;;29.13;;
12493;SDS011;8260;51.422;6.786;2022-12-10T06:24:10;56.07;;;27.33;;
12493;SDS011;8260;51.422;6.786;2022-12-10T06:26:39;57.00;;;28.27;;
12493;SDS011;8260;51.422;6.786;2022-12-10T06:29:08;58.17;;;29.93;;
12493;SDS011;8260;51.422;6.786;2022-12-10T06:31:36;58.77;;;29.57;;
12493;SDS011;8260;51.422;6.786;2022-12-10T06:34:05;59.73;;;30.33;;
12493;SDS011;8260;51.422;6.786;2022-12-10T06:36:35;61.77;;;31.30;;
12493;SDS011;8260;51.422;6.786;2022-12-10T06:39:03;55.10;;;30.90;;
12493;SDS011;8260;51.422;6.786;2022-12-10T06:41:31;51.13;;;28.63;;
12493;SDS011;8260;51.422;6.786;2022-12-10T06:44:00;59.33;;;30.30;;
12493;SDS011;8260;51.422;6.786;2022-12-10T06:46:28;51.30;;;27.83;;
12493;SDS011;8260;51.422;6.786;2022-12-10T06:48:57;56.77;;;30.13;;
12493;SDS011;8260;51.422;6.786;2022-12-10T06:51:25;54.23;;;27.83;;
12493;SDS011;8260;51.422;6.786;2022-12-10T06:53:55;52.07;;;27.10;;
12493;SDS011;8260;51.422;6.786;2022-12-10T06:56:24;57.33;;;29.67;;
12493;SDS011;8260;51.422;6.786;2022-12-10T06:58:52;56.47;;;29.83;;
12493;SDS011;8260;51.422;6.786;2022-12-10T07:01:22;56.67;;;29.13;;
12493;SDS011;8260;51.422;6.786;2022-12-10T07:03:53;60.93;;;29.13;;
12493;SDS011;8260;51.422;6.786;2022-12-10T07:06:22;65.30;;;31.80;;
12493;SDS011;8260;51.422;6.786;2022-12-10T07:08:51;62.17;;;30.47;;
12493;SDS011;8260;51.422;6.786;2022-12-10T07:11:22;67.40;;;31.83;;
12493;SDS011;8260;51.422;6.786;2022-12-10T07:13:51;60.73;;;32.83;;
12493;SDS011;8260;51.422;6.786;2022-12-10T07:16:20;68.07;;;33.07;;
12493;SDS011;8260;51.422;6.786;2022-12-10T07:18:49;66.30;;;33.67;;
12493;SDS011;8260;51.422;6.786;2022-12-10T07:21:19;66.53;;;34.43;;
12493;SDS011;8260;51.422;6.786;2022-12-10T07:23:48;70.40;;;32.90;;
12493;SDS011;8260;51.422;6.786;2022-12-10T07:26:16;67.90;;;33.30;;
12493;SDS011;8260;51.422;6.786;2022-12-10T07:28:46;64.73;;;33.63;;
12493;SDS011;8260;51.422;6.786;2022-12-10T07:31:19;71.60;;;34.37;;
12493;SDS011;8260;51.422;6.786;2022-12-10T07:33:49;77.20;;;35.87;;
12493;SDS011;8260;51.422;6.786;2022-12-10T07:36:18;74.03;;;34.97;;
12493;SDS011;8260;51.422;6.786;2022-12-10T07:38:47;85.80;;;37.53;;
12493;SDS011;8260;51.422;6.786;2022-12-10T07:41:15;80.33;;;37.43;;
12493;SDS011;8260;51.422;6.786;2022-12-10T07:43:44;80.13;;;35.87;;
12493;SDS011;8260;51.422;6.786;2022-12-10T07:46:15;89.07;;;38.90;;
12493;SDS011;8260;51.422;6.786;2022-12-10T07:48:45;76.53;;;35.70;;
12493;SDS011;8260;51.422;6.786;2022-12-10T07:51:14;84.63;;;37.73;;
12493;SDS011;8260;51.422;6.786;2022-12-10T07:53:42;89.27;;;39.00;;
12493;SDS011;8260;51.422;6.786;2022-12-10T07:56:11;87.43;;;37.83;;
12493;SDS011;8260;51.422;6.786;2022-12-10T07:58:40;86.07;;;36.93;;
12493;SDS011;8260;51.422;6.786;2022-12-10T08:01:10;84.30;;;37.53;;
12493;SDS011;8260;51.422;6.786;2022-12-10T08:03:40;80.83;;;37.00;;
12493;SDS011;8260;51.422;6.786;2022-12-10T08:06:09;88.37;;;38.30;;
12493;SDS011;8260;51.422;6.786;2022-12-10T08:08:38;89.87;;;38.00;;
12493;SDS011;8260;51.422;6.786;2022-12-10T08:11:06;87.23;;;37.57;;
12493;SDS011;8260;51.422;6.786;2022-12-10T08:13:35;93.10;;;39.83;;
12493;SDS011;8260;51.422;6.786;2022-12-10T08:16:05;94.07;;;38.47;;
12493;SDS011;8260;51.422;6.786;2022-12-10T08:18:34;86.33;;;36.80;;
12493;SDS011;8260;51.422;6.786;2022-12-10T08:21:05;81.20;;;35.50;;
12493;SDS011;8260;51.422;6.786;2022-12-10T08:23:34;91.40;;;36.60;;
12493;SDS011;8260;51.422;6.786;2022-12-10T08:26:03;82.63;;;36.07;;
12493;SDS011;8260;51.422;6.786;2022-12-10T08:28:31;91.30;;;38.43;;
12493;SDS011;8260;51.422;6.786;2022-12-10T08:31:00;85.73;;;34.83;;
12493;SDS011;8260;51.422;6.786;2022-12-10T08:33:28;80.93;;;35.30;;
12493;SDS011;8260;51.422;6.786;2022-12-10T08:35:57;81.40;;;35.13;;
12493;SDS011;8260;51.422;6.786;2022-12-10T08:38:28;77.30;;;35.53;;
12493;SDS011;8260;51.422;6.786;2022-12-10T08:40:57;82.57;;;35.63;;
12493;SDS011;8260;51.422;6.786;2022-12-10T08:43:25;86.40;;;36.27;;
12493;SDS011;8260;51.422;6.786;2022-12-10T08:45:53;81.27;;;35.27;;
12493;SDS011;8260;51.422;6.786;2022-12-10T08:48:22;82.10;;;37.43;;
12493;SDS011;8260;51.422;6.786;2022-12-10T08:50:50;86.10;;;39.17;;
12493;SDS011;8260;51.422;6.786;2022-12-10T08:53:18;80.63;;;34.10;;
12493;SDS011;8260;51.422;6.786;2022-12-10T08:55:50;79.03;;;35.00;;
12493;SDS011;8260;51.422;6.786;2022-12-10T08:58:18;86.40;;;36.10;;
12493;SDS011;8260;51.422;6.786;2022-12-10T09:00:47;81.33;;;36.73;;
12493;SDS011;8260;51.422;6.786;2022-12-10T09:03:16;78.77;;;35.40;;
12493;SDS011;8260;51.422;6.786;2022-12-10T09:05:44;83.93;;;35.13;;
12493;SDS011;8260;51.422;6.786;2022-12-10T09:08:13;79.10;;;36.17;;
12493;SDS011;8260;51.422;6.786;2022-12-10T09:10:42;76.93;;;35.43;;
12493;SDS011;8260;51.422;6.786;2022-12-10T09:13:12;75.17;;;34.47;;
12493;SDS011;8260;51.422;6.786;2022-12-10T09:15:40;79.70;;;34.13;;
12493;SDS011;8260;51.422;6.786;2022-12-10T09:18:09;76.90;;;34.57;;
12493;SDS011;8260;51.422;6.786;2022-12-10T09:20:37;76.63;;;32.63;;
12493;SDS011;8260;51.422;6.786;2022-12-10T09:23:06;75.17;;;34.70;;
12493;SDS011;8260;51.422;6.786;2022-12-10T09:25:34;79.50;;;34.37;;
12493;SDS011;8260;51.422;6.786;2022-12-10T09:28:03;78.13;;;32.00;;
12493;SDS011;8260;51.422;6.786;2022-12-10T09:30:32;79.37;;;32.53;;
12493;SDS011;8260;51.422;6.786;2022-12-10T09:33:01;88.30;;;34.27;;
12493;SDS011;8260;51.422;6.786;2022-12-10T09:35:29;79.73;;;33.47;;
12493;SDS011;8260;51.422;6.786;2022-12-10T09:37:58;81.47;;;34.63;;
12493;SDS011;8260;51.422;6.786;2022-12-10T09:40:29;81.40;;;35.93;;
12493;SDS011;8260;51.422;6.786;2022-12-10T09:43:00;86.63;;;34.77;;
12493;SDS011;8260;51.422;6.786;2022-12-10T09:45:34;81.13;;;33.47;;
12493;SDS011;8260;51.422;6.786;2022-12-10T09:48:07;88.30;;;35.73;;
12493;SDS011;8260;51.422;6.786;2022-12-10T09:50:42;90.70;;;38.67;;
12493;SDS011;8260;51.422;6.786;2022-12-10T09:53:13;86.90;;;34.90;;
12493;SDS011;8260;51.422;6.786;2022-12-10T09:55:44;91.40;;;34.97;;
12493;SDS011;8260;51.422;6.786;2022-12-10T09:58:13;92.73;;;36.57;;
12493;SDS011;8260;51.422;6.786;2022-12-10T10:00:46;94.47;;;37.77;;
12493;SDS011;8260;51.422;6.786;2022-12-10T10:03:15;92.83;;;35.27;;
12493;SDS011;8260;51.422;6.786;2022-12-10T10:05:45;91.17;;;37.63;;
12493;SDS011;8260;51.422;6.786;2022-12-10T10:08:15;97.10;;;37.63;;
12493;SDS011;8260;51.422;6.786;2022-12-10T10:10:45;87.10;;;37.13;;
12493;SDS011;8260;51.422;6.786;2022-12-10T10:13:15;85.57;;;35.77;;
12493;SDS011;8260;51.422;6.786;2022-12-10T10:15:45;96.30;;;36.20;;
12493;SDS011;8260;51.422;6.786;2022-12-10T10:18:16;89.07;;;37.50;;
12493;SDS011;8260;51.422;6.786;2022-12-10T10:20:46;96.77;;;38.37;;
12493;SDS011;8260;51.422;6.786;2022-12-10T10:23:15;87.33;;;36.13;;
12493;SDS011;8260;51.422;6.786;2022-12-10T10:25:43;85.07;;;37.27;;
12493;SDS011;8260;51.422;6.786;2022-12-10T10:28:13;87.93;;;37.33;;
12493;SDS011;8260;51.422;6.786;2022-12-10T10:30:43;89.17;;;38.27;;
12493;SDS011;8260;51.422;6.786;2022-12-10T10:33:14;86.23;;;36.50;;
12493;SDS011;8260;51.422;6.786;2022-12-10T10:35:44;72.67;;;34.00;;
12493;SDS011;8260;51.422;6.786;2022-12-10T10:38:15;76.83;;;36.23;;
12493;SDS011;8260;51.422;6.786;2022-12-10T10:40:45;71.43;;;33.50;;
12493;SDS011;8260;51.422;6.786;2022-12-10T10:43:14;70.63;;;31.83;;
12493;SDS011;8260;51.422;6.786;2022-12-10T10:45:43;66.03;;;32.53;;
12493;SDS011;8260;51.422;6.786;2022-12-10T10:48:18;61.80;;;30.47;;
12493;SDS011;8260;51.422;6.786;2022-12-10T10:50:47;58.07;;;30.10;;
12493;SDS011;8260;51.422;6.786;2022-12-10T10:56:05;54.47;;;27.23;;
12493;SDS011;8260;51.422;6.786;2022-12-10T10:58:35;57.17;;;28.03;;
12493;SDS011;8260;51.422;6.786;2022-12-10T11:01:04;50.60;;;27.10;;
12493;SDS011;8260;51.422;6.786;2022-12-10T11:03:35;48.13;;;25.77;;
12493;SDS011;8260;51.422;6.786;2022-12-10T11:06:05;50.97;;;25.30;;
12493;SDS011;8260;51.422;6.786;2022-12-10T11:08:37;41.03;;;23.40;;
12493;SDS011;8260;51.422;6.786;2022-12-10T11:11:06;43.30;;;22.67;;
12493;SDS011;8260;51.422;6.786;2022-12-10T11:13:38;47.17;;;24.67;;
12493;SDS011;8260;51.422;6.786;2022-12-10T11:16:12;47.73;;;25.87;;
12493;SDS011;8260;51.422;6.786;2022-12-10T11:18:52;49.77;;;26.43;;
12493;SDS011;8260;51.422;6.786;2022-12-10T11:21:22;46.20;;;26.30;;
12493;SDS011;8260;51.422;6.786;2022-12-10T11:23:52;43.63;;;24.37;;
12493;SDS011;8260;51.422;6.786;2022-12-10T11:26:27;52.33;;;26.50;;
12493;SDS011;8260;51.422;6.786;2022-12-10T11:29:07;48.30;;;25.53;;
12493;SDS011;8260;51.422;6.786;2022-12-10T11:31:41;45.03;;;25.03;;
12493;SDS011;8260;51.422;6.786;2022-12-10T11:34:15;49.10;;;27.57;;
12493;SDS011;8260;51.422;6.786;2022-12-10T11:36:49;43.80;;;23.67;;
12493;SDS011;8260;51.422;6.786;2022-12-10T11:39:25;48.03;;;26.50;;
12493;SDS011;8260;51.422;6.786;2022-12-10T11:41:58;47.67;;;26.07;;
12493;SDS011;8260;51.422;6.786;2022-12-10T11:44:33;45.90;;;26.23;;
12493;SDS011;8260;51.422;6.786;2022-12-10T11:47:14;51.20;;;27.50;;
12493;SDS011;8260;51.422;6.786;2022-12-10T11:49:52;46.80;;;26.00;;
12493;SDS011;8260;51.422;6.786;2022-12-10T11:52:25;44.63;;;25.00;;
12493;SDS011;8260;51.422;6.786;2022-12-10T11:55:00;41.60;;;25.50;;
12493;SDS011;8260;51.422;6.786;2022-12-10T11:57:38;48.97;;;27.20;;
12493;SDS011;8260;51.422;6.786;2022-12-10T12:00:16;55.67;;;26.97;;
12493;SDS011;8260;51.422;6.786;2022-12-10T12:05:52;49.80;;;27.17;;
12493;SDS011;8260;51.422;6.786;2022-12-10T12:08:31;46.77;;;26.60;;
12493;SDS011;8260;51.422;6.786;2022-12-10T12:11:06;44.97;;;25.60;;
12493;SDS011;8260;51.422;6.786;2022-12-10T12:13:38;50.90;;;27.67;;
12493;SDS011;8260;51.422;6.786;2022-12-10T12:16:10;55.10;;;27.67;;
12493;SDS011;8260;51.422;6.786;2022-12-10T12:18:41;51.13;;;28.07;;
12493;SDS011;8260;51.422;6.786;2022-12-10T12:21:14;50.73;;;27.13;;
12493;SDS011;8260;51.422;6.786;2022-12-10T12:23:46;49.87;;;26.37;;
12493;SDS011;8260;51.422;6.786;2022-12-10T12:26:16;50.97;;;28.47;;
12493;SDS011;8260;51.422;6.786;2022-12-10T12:28:47;57.67;;;29.60;;
12493;SDS011;8260;51.422;6.786;2022-12-10T12:31:20;54.93;;;29.13;;
12493;SDS011;8260;51.422;6.786;2022-12-10T12:33:50;55.70;;;28.87;;
12493;SDS011;8260;51.422;6.786;2022-12-10T12:36:21;56.83;;;29.23;;
12493;SDS011;8260;51.422;6.786;2022-12-10T12:38:51;54.50;;;26.90;;
12493;SDS011;8260;51.422;6.786;2022-12-10T12:41:24;51.73;;;27.30;;
12493;SDS011;8260;51.422;6.786;2022-12-10T12:43:56;48.60;;;24.93;;
12493;SDS011;8260;51.422;6.786;2022-12-10T12:46:27;51.57;;;27.47;;
12493;SDS011;8260;51.422;6.786;2022-12-10T12:48:58;46.20;;;23.87;;
12493;SDS011;8260;51.422;6.786;2022-12-10T12:51:31;44.33;;;23.57;;
12493;SDS011;8260;51.422;6.786;2022-12-10T12:54:00;44.87;;;23.03;;
12493;SDS011;8260;51.422;6.786;2022-12-10T12:56:33;40.73;;;23.37;;
12493;SDS011;8260;51.422;6.786;2022-12-10T12:59:09;40.80;;;21.60;;
12493;SDS011;8260;51.422;6.786;2022-12-10T13:01:40;39.63;;;22.67;;
12493;SDS011;8260;51.422;6.786;2022-12-10T13:04:10;42.90;;;23.07;;
12493;SDS011;8260;51.422;6.786;2022-12-10T13:06:40;45.23;;;23.37;;
12493;SDS011;8260;51.422;6.786;2022-12-10T13:09:22;45.77;;;24.47;;
12493;SDS011;8260;51.422;6.786;2022-12-10T13:14:53;40.67;;;23.23;;
12493;SDS011;8260;51.422;6.786;2022-12-10T13:17:24;40.77;;;22.90;;
12493;SDS011;8260;51.422;6.786;2022-12-10T13:19:53;41.10;;;23.77;;
12493;SDS011;8260;51.422;6.786;2022-12-10T13:25:14;40.60;;;23.03;;
12493;SDS011;8260;51.422;6.786;2022-12-10T13:27:53;38.27;;;22.27;;
12493;SDS011;8260;51.422;6.786;2022-12-10T13:30:28;42.23;;;22.33;;
12493;SDS011;8260;51.422;6.786;2022-12-10T13:33:03;40.27;;;22.83;;
12493;SDS011;8260;51.422;6.786;2022-12-10T13:35:33;43.37;;;23.97;;
12493;SDS011;8260;51.422;6.786;2022-12-10T13:38:17;41.73;;;22.13;;
12493;SDS011;8260;51.422;6.786;2022-12-10T13:40:56;42.40;;;23.43;;
12493;SDS011;8260;51.422;6.786;2022-12-10T13:43:42;39.43;;;22.30;;
12493;SDS011;8260;51.422;6.786;2022-12-10T13:46:52;40.10;;;22.10;;
12493;SDS011;8260;51.422;6.786;2022-12-10T13:49:22;40.83;;;24.10;;
12493;SDS011;8260;51.422;6.786;2022-12-10T13:51:52;41.33;;;23.83;;
12493;SDS011;8260;51.422;6.786;2022-12-10T13:54:41;45.47;;;24.67;;
12493;SDS011;8260;51.422;6.786;2022-12-10T13:57:18;45.13;;;23.80;;
12493;SDS011;8260;51.422;6.786;2022-12-10T13:59:52;42.93;;;24.50;;
12493;SDS011;8260;51.422;6.786;2022-12-10T14:02:42;43.93;;;24.83;;
12493;SDS011;8260;51.422;6.786;2022-12-10T14:05:23;45.80;;;25.00;;
12493;SDS011;8260;51.422;6.786;2022-12-10T14:07:53;46.33;;;25.17;;
12493;SDS011;8260;51.422;6.786;2022-12-10T14:10:26;43.73;;;24.43;;
12493;SDS011;8260;51.422;6.786;2022-12-10T14:12:56;45.63;;;25.67;;
12493;SDS011;8260;51.422;6.786;2022-12-10T14:15:26;46.37;;;26.20;;
12493;SDS011;8260;51.422;6.786;2022-12-10T14:17:58;45.40;;;25.60;;
12493;SDS011;8260;51.422;6.786;2022-12-10T14:20:28;47.23;;;26.37;;
12493;SDS011;8260;51.422;6.786;2022-12-10T14:22:57;48.67;;;27.03;;
12493;SDS011;8260;51.422;6.786;2022-12-10T14:25:44;52.87;;;26.90;;
12493;SDS011;8260;51.422;6.786;2022-12-10T14:28:16;46.43;;;27.43;;
12493;SDS011;8260;51.422;6.786;2022-12-10T14:30:46;51.73;;;27.43;;
12493;SDS011;8260;51.422;6.786;2022-12-10T14:33:15;49.20;;;28.07;;
12493;SDS011;8260;51.422;6.786;2022-12-10T14:35:46;43.83;;;26.03;;
12493;SDS011;8260;51.422;6.786;2022-12-10T14:38:17;48.63;;;26.03;;
12493;SDS011;8260;51.422;6.786;2022-12-10T14:40:47;49.40;;;26.07;;
12493;SDS011;8260;51.422;6.786;2022-12-10T14:43:18;44.40;;;25.67;;
12493;SDS011;8260;51.422;6.786;2022-12-10T14:45:49;49.17;;;27.13;;
12493;SDS011;8260;51.422;6.786;2022-12-10T14:48:19;49.20;;;27.10;;
12493;SDS011;8260;51.422;6.786;2022-12-10T14:50:48;52.97;;;28.23;;
12493;SDS011;8260;51.422;6.786;2022-12-10T14:53:18;49.57;;;26.73;;
12493;SDS011;8260;51.422;6.786;2022-12-10T14:55:55;46.53;;;26.43;;
12493;SDS011;8260;51.422;6.786;2022-12-10T14:58:27;52.20;;;28.90;;
12493;SDS011;8260;51.422;6.786;2022-12-10T15:01:09;56.13;;;28.60;;
12493;SDS011;8260;51.422;6.786;2022-12-10T15:03:43;50.43;;;25.87;;
12493;SDS011;8260;51.422;6.786;2022-12-10T15:06:14;52.03;;;26.43;;
12493;SDS011;8260;51.422;6.786;2022-12-10T15:08:43;51.73;;;26.80;;